createdAt,value
2023-03-31T00:01:42.282Z,95708.34
2023-03-31T00:04:13.878Z,95713.91
2023-03-31T00:06:43.750Z,95710.66
2023-03-31T00:09:16.108Z,95704.88
2023-03-31T00:11:45.278Z,95705.91
2023-03-31T00:14:15.844Z,95704.41
2023-03-31T00:16:44.429Z,95706.13
2023-03-31T00:19:21.398Z,95693.50
2023-03-31T00:21:51.743Z,95695.94
2023-03-31T00:24:20.254Z,95695.94
2023-03-31T00:26:49.136Z,95701.13
2023-03-31T00:29:17.564Z,95694.88
2023-03-31T00:31:46.268Z,95702.16
2023-03-31T00:34:15.937Z,95697.16
2023-03-31T00:36:47.910Z,95695.66
2023-03-31T00:39:18.198Z,95685.66
2023-03-31T00:41:47.107Z,95682.09
2023-03-31T00:44:19.282Z,95683.22
2023-03-31T00:46:53.046Z,95671.41
2023-03-31T00:49:27.361Z,95670.72
2023-03-31T00:51:58.883Z,95677.66
2023-03-31T00:54:28.164Z,95676.28
2023-03-31T00:57:03.727Z,95681.59
2023-03-31T00:59:33.645Z,95675.69
2023-03-31T01:02:04.925Z,95675.69
2023-03-31T01:04:37.931Z,95671.50
2023-03-31T01:07:17.232Z,95668.72
2023-03-31T01:09:49.003Z,95655.47
2023-03-31T01:12:19.047Z,95668.34
2023-03-31T01:14:48.283Z,95658.94
2023-03-31T01:17:19.559Z,95658.16
2023-03-31T01:19:58.975Z,95654.91
2023-03-31T01:23:07.171Z,95637.16
2023-03-31T01:26:09.957Z,95637.88
2023-03-31T01:28:42.760Z,95639.00
2023-03-31T01:31:32.288Z,95639.00
2023-03-31T01:34:35.976Z,95629.03
2023-03-31T01:37:47.712Z,95630.53
2023-03-31T01:40:38.018Z,95622.41
2023-03-31T01:43:11.897Z,95617.50
2023-03-31T01:45:49.093Z,95609.97
2023-03-31T01:48:21.399Z,95599.06
2023-03-31T01:50:55.951Z,95596.84
2023-03-31T01:53:30.020Z,95595.44
2023-03-31T01:56:04.496Z,95589.75
2023-03-31T01:58:37.035Z,95582.34
2023-03-31T02:01:09.586Z,95581.41
2023-03-31T02:03:43.846Z,95578.28
2023-03-31T02:06:15.676Z,95576.19
2023-03-31T02:08:46.689Z,95562.84
2023-03-31T02:11:17.294Z,95563.28
2023-03-31T02:13:50.482Z,95560.72
2023-03-31T02:16:27.446Z,95549.75
2023-03-31T02:19:02.618Z,95552.31
2023-03-31T02:21:31.803Z,95550.78
2023-03-31T02:24:01.139Z,95549.28
2023-03-31T02:26:33.174Z,95543.34
2023-03-31T02:29:01.866Z,95544.38
2023-03-31T02:31:35.358Z,95545.44
2023-03-31T02:34:04.462Z,95541.25
2023-03-31T02:36:33.680Z,95538.13
2023-03-31T02:39:06.599Z,95532.44
2023-03-31T02:41:37.458Z,95518.38
2023-03-31T02:44:05.957Z,95525.31
2023-03-31T02:46:34.830Z,95528.88
2023-03-31T02:49:05.235Z,95517.31
2023-03-31T02:52:04.652Z,95514.50
2023-03-31T02:55:09.657Z,95519.78
2023-03-31T02:58:05.715Z,95517.81
2023-03-31T03:00:43.418Z,95510.69
2023-03-31T03:03:24.122Z,95508.16
2023-03-31T03:06:01.340Z,95512.44
2023-03-31T03:08:38.152Z,95513.69
2023-03-31T03:11:11.340Z,95506.47
2023-03-31T03:13:47.334Z,95507.41
2023-03-31T03:16:21.478Z,95509.66
2023-03-31T03:18:57.291Z,95511.41
2023-03-31T03:21:26.169Z,95494.94
2023-03-31T03:23:55.279Z,95504.75
2023-03-31T03:26:28.369Z,95508.28
2023-03-31T03:28:58.834Z,95515.88
2023-03-31T03:31:27.775Z,95511.47
2023-03-31T03:33:56.540Z,95502.94
2023-03-31T03:36:25.285Z,95503.84
2023-03-31T03:38:54.135Z,95501.63
2023-03-31T03:41:22.929Z,95493.06
2023-03-31T03:43:51.616Z,95485.25
2023-03-31T03:46:21.687Z,95486.16
2023-03-31T03:48:49.900Z,95478.63
2023-03-31T03:51:18.611Z,95478.63
2023-03-31T03:53:47.421Z,95475.91
2023-03-31T03:56:16.396Z,95480.28
2023-03-31T03:58:45.031Z,95478.16
2023-03-31T04:01:13.555Z,95469.63
2023-03-31T04:03:43.622Z,95467.19
2023-03-31T04:06:12.719Z,95470.63
2023-03-31T04:08:41.330Z,95472.38
2023-03-31T04:11:18.998Z,95473.00
2023-03-31T04:13:48.313Z,95466.06
2023-03-31T04:16:17.706Z,95461.38
2023-03-31T04:18:48.999Z,95460.44
2023-03-31T04:21:23.271Z,95469.00
2023-03-31T04:24:01.929Z,95462.28
2023-03-31T04:26:39.194Z,95457.19
2023-03-31T04:29:08.268Z,95453.84
2023-03-31T04:31:39.043Z,95457.09
2023-03-31T04:34:13.649Z,95464.72
2023-03-31T04:36:48.061Z,95459.53
2023-03-31T04:39:17.357Z,95459.44
2023-03-31T04:41:46.522Z,95446.63
2023-03-31T04:44:15.430Z,95440.38
2023-03-31T04:46:44.180Z,95437.66
2023-03-31T04:49:16.632Z,95444.94
2023-03-31T04:51:47.844Z,95422.00
2023-03-31T04:54:16.394Z,95431.31
2023-03-31T04:56:45.210Z,95432.84
2023-03-31T04:59:14.113Z,95423.16
2023-03-31T05:01:45.365Z,95424.34
2023-03-31T05:04:15.875Z,95418.59
2023-03-31T05:06:44.282Z,95423.84
2023-03-31T05:09:12.776Z,95408.81
2023-03-31T05:11:41.494Z,95402.84
2023-03-31T05:14:10.213Z,95393.59
2023-03-31T05:16:39.079Z,95395.47
2023-03-31T05:19:07.640Z,95392.41
2023-03-31T05:21:39.422Z,95385.13
2023-03-31T05:24:08.828Z,95374.59
2023-03-31T05:26:37.164Z,95374.16
2023-03-31T05:29:05.769Z,95376.22
2023-03-31T05:31:34.574Z,95383.50
2023-03-31T05:34:03.584Z,95374.84
2023-03-31T05:36:32.585Z,95368.69
2023-03-31T05:39:02.488Z,95367.53
2023-03-31T05:41:31.197Z,95372.97
2023-03-31T05:44:00.149Z,95376.09
2023-03-31T05:46:30.932Z,95370.09
2023-03-31T05:49:00.766Z,95362.22
2023-03-31T05:51:29.366Z,95363.59
2023-03-31T05:53:57.674Z,95357.91
2023-03-31T05:56:28.743Z,95357.31
2023-03-31T05:58:57.663Z,95356.00
2023-03-31T06:01:26.423Z,95348.47
2023-03-31T06:03:54.976Z,95348.69
2023-03-31T06:06:25.722Z,95350.63
2023-03-31T06:08:54.205Z,95352.34
2023-03-31T06:11:23.603Z,95346.63
2023-03-31T06:13:53.360Z,95345.78
2023-03-31T06:16:22.194Z,95335.53
2023-03-31T06:18:53.703Z,95333.03
2023-03-31T06:21:25.504Z,95317.13
2023-03-31T06:23:56.342Z,95314.75
2023-03-31T06:26:24.984Z,95312.78
2023-03-31T06:28:55.230Z,95311.66
2023-03-31T06:31:29.884Z,95307.53
2023-03-31T06:33:58.671Z,95300.28
2023-03-31T06:36:27.398Z,95307.59
2023-03-31T06:38:56.179Z,95303.81
2023-03-31T06:41:32.549Z,95293.22
2023-03-31T06:44:06.050Z,95283.84
2023-03-31T06:46:35.414Z,95275.16
2023-03-31T06:49:05.446Z,95263.34
2023-03-31T06:51:34.459Z,95264.59
2023-03-31T06:54:04.967Z,95262.56
2023-03-31T06:56:33.774Z,95262.19
2023-03-31T06:59:07.104Z,95249.66
2023-03-31T07:01:49.545Z,95249.53
2023-03-31T07:04:18.252Z,95251.00
2023-03-31T07:06:46.850Z,95243.88
2023-03-31T07:09:15.200Z,95234.47
2023-03-31T07:11:45.968Z,95238.34
2023-03-31T07:14:15.895Z,95234.59
2023-03-31T07:16:44.647Z,95236.97
2023-03-31T07:19:13.711Z,95228.88
2023-03-31T07:21:42.765Z,95224.09
2023-03-31T07:24:11.630Z,95213.41
2023-03-31T07:26:40.521Z,95217.13
2023-03-31T07:29:08.884Z,95216.06
2023-03-31T07:31:39.216Z,95211.56
2023-03-31T07:34:13.000Z,95200.16
2023-03-31T07:36:41.929Z,95197.22
2023-03-31T07:39:10.563Z,95195.72
2023-03-31T07:41:39.440Z,95204.78
2023-03-31T07:44:08.048Z,95192.41
2023-03-31T07:46:36.629Z,95191.28
2023-03-31T07:49:08.170Z,95180.66
2023-03-31T07:51:37.334Z,95177.78
2023-03-31T07:54:06.659Z,95176.84
2023-03-31T07:56:35.878Z,95172.81
2023-03-31T07:59:05.831Z,95130.03
2023-03-31T08:01:35.100Z,95155.06
2023-03-31T08:04:04.316Z,95153.31
2023-03-31T08:06:34.800Z,95157.47
2023-03-31T08:09:05.413Z,95145.78
2023-03-31T08:11:34.508Z,95149.00
2023-03-31T08:14:03.507Z,95144.03
2023-03-31T08:16:32.808Z,95135.53
2023-03-31T08:19:01.802Z,95136.72
2023-03-31T08:21:30.896Z,95138.69
2023-03-31T08:24:01.510Z,95135.31
2023-03-31T08:26:32.290Z,95124.66
2023-03-31T08:29:04.535Z,95127.06
2023-03-31T08:31:36.185Z,95128.69
2023-03-31T08:34:05.542Z,95124.88
2023-03-31T08:36:35.608Z,95123.28
2023-03-31T08:39:06.760Z,95120.44
2023-03-31T08:41:44.461Z,95113.13
2023-03-31T08:44:17.939Z,95112.25
2023-03-31T08:46:46.779Z,95095.47
2023-03-31T08:49:17.763Z,95086.41
2023-03-31T08:51:50.596Z,95083.31
2023-03-31T08:54:25.316Z,95071.22
2023-03-31T08:56:54.661Z,95067.63
2023-03-31T08:59:28.521Z,95061.88
2023-03-31T09:02:04.126Z,95047.16
2023-03-31T09:05:16.353Z,95052.28
2023-03-31T09:07:52.621Z,95054.69
2023-03-31T09:10:29.945Z,95055.16
2023-03-31T09:13:04.481Z,95041.22
2023-03-31T09:15:37.809Z,95050.81
2023-03-31T09:18:15.778Z,95056.97
2023-03-31T09:20:48.065Z,95044.28
2023-03-31T09:23:24.662Z,95039.47
2023-03-31T09:25:55.448Z,95044.28
2023-03-31T09:28:30.387Z,95043.78
2023-03-31T09:30:59.043Z,95043.63
2023-03-31T09:33:32.471Z,95028.53
2023-03-31T09:36:01.561Z,95025.31
2023-03-31T09:38:31.470Z,95026.94
2023-03-31T09:41:03.188Z,95026.28
2023-03-31T09:43:35.509Z,95029.50
2023-03-31T09:46:09.334Z,95017.47
2023-03-31T09:48:42.616Z,95018.13
2023-03-31T09:51:17.409Z,95024.75
2023-03-31T09:53:50.197Z,95027.66
2023-03-31T09:56:36.783Z,95020.91
2023-03-31T09:59:05.611Z,95031.31
2023-03-31T10:01:34.157Z,95062.88
2023-03-31T10:04:05.980Z,95044.31
2023-03-31T10:06:35.225Z,95030.91
2023-03-31T10:09:05.504Z,95042.97
2023-03-31T10:11:36.862Z,95067.91
2023-03-31T10:14:07.053Z,95048.53
2023-03-31T10:16:37.342Z,95059.63
2023-03-31T10:19:14.936Z,95061.81
2023-03-31T10:21:48.163Z,95062.34
2023-03-31T10:24:20.390Z,95061.84
2023-03-31T10:26:54.078Z,95049.47
2023-03-31T10:29:32.270Z,95039.19
2023-03-31T10:32:05.210Z,95041.66
2023-03-31T10:34:34.252Z,95002.25
2023-03-31T10:37:05.950Z,94987.66
2023-03-31T10:39:34.920Z,94988.88
2023-03-31T10:42:07.550Z,94978.00
2023-03-31T10:44:38.159Z,94947.13
2023-03-31T10:47:08.618Z,94940.81
2023-03-31T10:49:40.735Z,94929.34
2023-03-31T10:52:20.966Z,94912.38
2023-03-31T10:54:54.752Z,94916.31
2023-03-31T10:57:30.849Z,94909.38
2023-03-31T11:00:25.882Z,94915.25
2023-03-31T11:03:22.469Z,94911.16
2023-03-31T11:05:52.655Z,94898.03
2023-03-31T11:08:35.218Z,94901.53
2023-03-31T11:11:13.553Z,94904.34
2023-03-31T11:13:50.138Z,94884.78
2023-03-31T11:16:26.153Z,94888.06
2023-03-31T11:19:17.809Z,94865.19
2023-03-31T11:21:54.493Z,94864.97
2023-03-31T11:24:35.968Z,94853.97
2023-03-31T11:27:14.125Z,94868.66
2023-03-31T11:29:46.972Z,94884.25
2023-03-31T11:32:31.742Z,94904.41
2023-03-31T11:35:16.680Z,94921.47
2023-03-31T11:38:01.994Z,94925.06
2023-03-31T11:40:41.933Z,94919.88
2023-03-31T11:43:25.127Z,94894.50
2023-03-31T11:46:05.092Z,94878.72
2023-03-31T11:48:39.826Z,94874.19
2023-03-31T11:51:14.862Z,94863.31
2023-03-31T11:53:44.392Z,94858.72
2023-03-31T11:56:15.770Z,94868.66
2023-03-31T11:58:47.333Z,94872.78
2023-03-31T12:01:23.199Z,94869.94
2023-03-31T12:03:58.507Z,94861.56
2023-03-31T12:06:30.916Z,94849.63
2023-03-31T12:09:14.734Z,94846.66
2023-03-31T12:11:46.095Z,94853.50
2023-03-31T12:14:25.613Z,94837.00
2023-03-31T12:16:58.074Z,94838.50
2023-03-31T12:19:29.636Z,94820.28
2023-03-31T12:22:02.309Z,94815.56
2023-03-31T12:36:18.022Z,94779.75
2023-03-31T12:39:04.430Z,94785.59
2023-03-31T12:41:39.042Z,94765.81
2023-03-31T12:44:16.103Z,94759.78
2023-03-31T12:47:05.770Z,94748.94
2023-03-31T12:50:00.429Z,94755.00
2023-03-31T12:52:37.926Z,94751.94
2023-03-31T12:55:38.434Z,94756.38
2023-03-31T12:58:38.595Z,94762.00
2023-03-31T13:01:19.131Z,94764.03
2023-03-31T13:04:11.199Z,94761.31
2023-03-31T13:06:57.993Z,94763.16
2023-03-31T13:09:57.186Z,94779.06
2023-03-31T13:12:33.294Z,94766.59
2023-03-31T13:15:06.050Z,94752.78
2023-03-31T13:17:37.765Z,94770.00
2023-03-31T13:20:28.743Z,94766.13
2023-03-31T13:23:03.520Z,94761.03
2023-03-31T13:25:52.231Z,94751.06
2023-03-31T13:28:43.237Z,94760.66
2023-03-31T13:31:12.607Z,94746.56
2023-03-31T13:33:58.097Z,94722.69
2023-03-31T13:37:10.829Z,94681.16
2023-03-31T13:40:26.338Z,94718.38
2023-03-31T13:43:17.337Z,94709.09
2023-03-31T13:45:54.180Z,94715.88
2023-03-31T13:48:33.613Z,94723.72
2023-03-31T13:51:24.870Z,94726.13
2023-03-31T13:54:37.986Z,94737.22
2023-03-31T13:58:00.508Z,94724.13
2023-03-31T14:00:39.468Z,94722.56
2023-03-31T14:03:18.550Z,94717.22
2023-03-31T14:05:49.837Z,94725.22
2023-03-31T14:08:21.822Z,94726.56
2023-03-31T14:10:51.229Z,94724.25
2023-03-31T14:13:21.925Z,94734.63
2023-03-31T14:15:53.651Z,94722.97
2023-03-31T14:18:27.123Z,94738.00
2023-03-31T14:21:09.404Z,94760.91
2023-03-31T14:23:46.454Z,94758.94
2023-03-31T14:26:22.382Z,94822.78
2023-03-31T14:29:12.859Z,94914.31
2023-03-31T14:31:52.998Z,94877.94
2023-03-31T14:34:46.310Z,94833.06
2023-03-31T14:37:18.019Z,94797.59
2023-03-31T14:39:48.385Z,94744.66
2023-03-31T14:42:18.694Z,94742.59
2023-03-31T14:44:48.741Z,94743.41
2023-03-31T14:47:22.910Z,94732.06
2023-03-31T14:50:01.260Z,94725.78
2023-03-31T14:52:36.677Z,94730.56
2023-03-31T14:55:06.179Z,94722.66
2023-03-31T14:57:37.640Z,94714.22
2023-03-31T15:00:08.693Z,94715.19
2023-03-31T15:02:44.198Z,94708.13
2023-03-31T15:05:27.851Z,94711.31
2023-03-31T15:07:58.984Z,94714.31
2023-03-31T15:10:32.322Z,94721.25
2023-03-31T15:13:01.133Z,94718.31
2023-03-31T15:15:29.960Z,94711.38
2023-03-31T15:18:05.983Z,94717.97
2023-03-31T15:20:38.182Z,94714.44
2023-03-31T15:23:24.937Z,94718.34
2023-03-31T15:25:57.018Z,94696.56
2023-03-31T15:28:28.147Z,94705.66
2023-03-31T15:33:48.584Z,94699.34
2023-03-31T15:36:17.898Z,94702.09
2023-03-31T15:38:46.871Z,94701.16
2023-03-31T15:41:17.100Z,94692.81
2023-03-31T15:43:48.304Z,94677.44
2023-03-31T15:46:20.872Z,94673.13
2023-03-31T15:48:57.928Z,94674.91
2023-03-31T15:51:28.928Z,94664.34
2023-03-31T15:54:00.879Z,94690.25
2023-03-31T15:56:34.843Z,94679.69
2023-03-31T15:59:08.636Z,94699.19
2023-03-31T16:01:40.359Z,94697.22
2023-03-31T16:04:12.837Z,94697.25
2023-03-31T16:06:45.974Z,94686.03
2023-03-31T16:09:17.868Z,94695.19
2023-03-31T16:11:49.912Z,94708.19
2023-03-31T16:14:24.980Z,94701.50
2023-03-31T16:16:56.442Z,94714.31
2023-03-31T16:19:31.812Z,94709.69
2023-03-31T16:22:02.384Z,94733.66
2023-03-31T16:24:36.629Z,94725.47
2023-03-31T16:27:08.053Z,94721.47
2023-03-31T16:29:37.329Z,94720.50
2023-03-31T16:32:11.478Z,94729.91
2023-03-31T16:34:55.624Z,94725.47
2023-03-31T16:37:24.165Z,94723.06
2023-03-31T16:39:53.421Z,94715.53
2023-03-31T16:42:24.606Z,94725.41
2023-03-31T16:45:13.096Z,94711.47
2023-03-31T16:47:45.545Z,94719.59
2023-03-31T16:50:16.057Z,94731.09
2023-03-31T16:52:53.382Z,94740.81
2023-03-31T16:55:22.647Z,94752.47
2023-03-31T16:57:53.218Z,94746.72
2023-03-31T17:00:22.638Z,94735.50
2023-03-31T17:02:51.566Z,94732.75
2023-03-31T17:05:23.423Z,94728.72
2023-03-31T17:07:52.424Z,94681.72
2023-03-31T17:10:21.102Z,94714.34
2023-03-31T17:12:49.871Z,94718.34
2023-03-31T17:15:18.854Z,94709.22
2023-03-31T17:17:50.529Z,94719.97
2023-03-31T17:20:23.381Z,94721.53
2023-03-31T17:22:54.381Z,94718.97
2023-03-31T17:25:23.702Z,94724.34
2023-03-31T17:27:52.499Z,94708.28
2023-03-31T17:30:24.884Z,94705.34
2023-03-31T17:32:56.151Z,94713.16
2023-03-31T17:35:27.124Z,94705.06
2023-03-31T17:37:55.726Z,94669.84
2023-03-31T17:40:27.593Z,94695.84
2023-03-31T17:42:56.776Z,94703.50
2023-03-31T17:45:27.710Z,94720.88
2023-03-31T17:47:56.650Z,94716.88
2023-03-31T17:50:27.332Z,94721.56
2023-03-31T17:52:55.952Z,94728.72
2023-03-31T17:55:24.919Z,94729.72
2023-03-31T17:57:53.810Z,94724.47
2023-03-31T18:00:22.179Z,94722.16
2023-03-31T18:02:51.415Z,94718.47
2023-03-31T18:05:20.416Z,94724.13
2023-03-31T18:07:52.145Z,94731.78
2023-03-31T18:10:24.094Z,94719.44
2023-03-31T18:12:55.190Z,94724.41
2023-03-31T18:15:24.942Z,94729.00
2023-03-31T18:17:58.713Z,94727.38
2023-03-31T18:20:28.254Z,94726.59
2023-03-31T18:23:00.676Z,94735.94
2023-03-31T18:25:29.416Z,94740.38
2023-03-31T18:27:58.121Z,94736.22
2023-03-31T18:30:30.258Z,94730.81
2023-03-31T18:33:02.775Z,94730.69
2023-03-31T18:35:32.104Z,94739.28
2023-03-31T18:38:02.410Z,94737.97
2023-03-31T18:40:31.189Z,94732.72
2023-03-31T18:43:00.289Z,94728.78
2023-03-31T18:45:33.193Z,94728.63
2023-03-31T18:48:04.863Z,94742.72
2023-03-31T18:50:33.760Z,94739.06
2023-03-31T18:53:05.479Z,94740.56
2023-03-31T18:55:36.600Z,94735.28
2023-03-31T18:58:05.654Z,94732.66
2023-03-31T19:00:35.004Z,94739.31
2023-03-31T19:03:05.075Z,94740.41
2023-03-31T19:05:34.210Z,94750.34
2023-03-31T19:08:04.580Z,94739.81
2023-03-31T19:10:36.685Z,94734.56
2023-03-31T19:13:15.580Z,94729.44
2023-03-31T19:15:44.726Z,94731.19
2023-03-31T19:18:18.718Z,94730.41
2023-03-31T19:20:49.116Z,94728.28
2023-03-31T19:23:19.544Z,94729.06
2023-03-31T19:25:49.168Z,94729.66
2023-03-31T19:28:18.642Z,94707.91
2023-03-31T19:30:50.691Z,94707.97
2023-03-31T19:33:25.103Z,94711.47
2023-03-31T19:35:55.277Z,94707.59
2023-03-31T19:38:32.152Z,94701.34
2023-03-31T19:41:01.397Z,94701.34
2023-03-31T19:43:30.929Z,94698.34
2023-03-31T19:46:01.750Z,94705.69
2023-03-31T19:48:34.132Z,94707.19
2023-03-31T19:51:06.135Z,94702.44
2023-03-31T19:53:38.351Z,94711.13
2023-03-31T19:56:09.257Z,94731.44
2023-03-31T19:58:39.288Z,94738.28
2023-03-31T20:01:11.557Z,94707.19
2023-03-31T20:03:41.289Z,94710.25
2023-03-31T20:06:12.510Z,94712.28
2023-03-31T20:08:46.668Z,94707.81
2023-03-31T20:11:16.803Z,94714.41
2023-03-31T20:13:46.737Z,94713.59
2023-03-31T20:16:17.738Z,94719.16
2023-03-31T20:18:48.287Z,94724.03
2023-03-31T20:21:23.500Z,94689.88
2023-03-31T20:23:53.738Z,94724.59
2023-03-31T20:26:25.096Z,94730.53
2023-03-31T20:28:56.185Z,94711.59
2023-03-31T20:31:29.010Z,94723.22
2023-03-31T20:33:59.128Z,94729.88
2023-03-31T20:36:32.171Z,94725.84
2023-03-31T20:39:05.891Z,94721.63
2023-03-31T20:41:35.742Z,94711.97
2023-03-31T20:44:17.366Z,94718.81
2023-03-31T20:46:46.881Z,94716.28
2023-03-31T20:49:15.395Z,94721.78
2023-03-31T20:51:46.243Z,94722.41
2023-03-31T20:54:17.686Z,94713.16
2023-03-31T20:56:48.952Z,94717.09
2023-03-31T20:59:18.917Z,94716.28
2023-03-31T21:01:49.858Z,94702.72
2023-03-31T21:04:18.797Z,94691.91
2023-03-31T21:06:52.034Z,94697.66
2023-03-31T21:09:24.229Z,94706.94
2023-03-31T21:11:53.141Z,94696.34
2023-03-31T21:14:22.021Z,94703.16
2023-03-31T21:16:50.842Z,94686.22
2023-03-31T21:19:19.362Z,94701.09
2023-03-31T21:21:50.218Z,94694.16
2023-03-31T21:24:22.735Z,94699.38
2023-03-31T21:26:55.548Z,94695.84
2023-03-31T21:29:24.488Z,94702.50
2023-03-31T21:31:53.346Z,94705.25
2023-03-31T21:34:22.253Z,94707.59
2023-03-31T21:36:52.192Z,94690.72
2023-03-31T21:39:22.135Z,94700.91
2023-03-31T21:41:52.450Z,94696.22
2023-03-31T21:44:22.746Z,94693.34
2023-03-31T21:47:00.225Z,94691.97
2023-03-31T21:49:29.335Z,94692.41
2023-03-31T21:51:59.371Z,94700.25
2023-03-31T21:54:28.184Z,94691.25
2023-03-31T21:56:58.992Z,94699.72
2023-03-31T21:59:29.496Z,94686.72
2023-03-31T22:01:58.595Z,94693.75
2023-03-31T22:04:30.706Z,94706.66
2023-03-31T22:07:00.464Z,94703.16
2023-03-31T22:09:29.611Z,94715.25
2023-03-31T22:11:58.602Z,94699.41
2023-03-31T22:14:29.249Z,94699.19
2023-03-31T22:16:59.504Z,94687.44
2023-03-31T22:19:28.832Z,94698.47
2023-03-31T22:21:58.594Z,94697.09
2023-03-31T22:24:27.619Z,94690.09
2023-03-31T22:26:58.826Z,94689.94
2023-03-31T22:29:29.198Z,94694.13
2023-03-31T22:31:58.712Z,94691.72
2023-03-31T22:34:27.789Z,94678.28
2023-03-31T22:36:58.085Z,94669.50
2023-03-31T22:39:28.945Z,94688.69
2023-03-31T22:41:57.845Z,94691.75
2023-03-31T22:44:26.929Z,94685.34
2023-03-31T22:46:57.476Z,94688.31
2023-03-31T22:49:26.203Z,94684.41
2023-03-31T22:51:55.435Z,94682.56
2023-03-31T22:54:24.041Z,94687.03
2023-03-31T22:56:52.608Z,94684.88
2023-03-31T22:59:24.259Z,94674.16
2023-03-31T23:01:54.372Z,94678.72
2023-03-31T23:04:25.202Z,94681.94
2023-03-31T23:06:55.338Z,94688.69
2023-03-31T23:09:25.161Z,94699.00
2023-03-31T23:11:54.200Z,94702.66
2023-03-31T23:14:22.882Z,94701.09
2023-03-31T23:16:53.026Z,94692.47
2023-03-31T23:19:21.931Z,94699.00
2023-03-31T23:21:52.960Z,94686.78
2023-03-31T23:24:25.132Z,94695.69
2023-03-31T23:26:53.985Z,94686.66
2023-03-31T23:29:22.702Z,94663.34
2023-03-31T23:31:51.708Z,94701.56
2023-03-31T23:34:23.500Z,94696.19
2023-03-31T23:36:56.469Z,94701.56
2023-03-31T23:39:25.169Z,94710.63
2023-03-31T23:41:54.262Z,94700.25
2023-03-31T23:44:23.161Z,94681.53
2023-03-31T23:46:52.689Z,94690.91
2023-03-31T23:49:21.590Z,94693.44
2023-03-31T23:51:50.209Z,94686.59
2023-03-31T23:54:20.302Z,94695.34
2023-03-31T23:56:49.146Z,94696.59
2023-03-31T23:59:20.900Z,94699.53
